Vincent, Kentucky
Current Conditions -  °F | °C
As of 6:53 PM on Tuesday 25 Nov 2014 (Local Time) from KJKL Reporting Station
Clear Clear  
Wind Chill: 44°   Ceiling: Unl
Heat Index: 46°   Visibility: 10mi
Dew Point: 27°   Wind: 5mph
Humidity: 47%   Direction: NA
Pressure: 30.1"   Gusts: NA
Location:  37.47°N, 83.77°W
Report Text: KJKL 252353Z AUTO VRB04KT 10SM CLR 08/M03 A3010 RMK AO2 SLP195 T00781028 10133 20072 53008
Loading
Personal Weather Stations






























Interactive Weather Map New forecast layout! Learn more

10-Day Weather Forecast

Advertisements
Track Severe Weather on mobile